logo dgac
Martes 21 de Septiembre del 2021
Buscar por aerodromo o helipuerto
Ingrese nombre de aeródromo, localidad o designador OACI:
TAF: TAF SCTE 211017Z 2112/2212 17007KT 9999 BKN010 TX16/2119Z TN04/2209Z BECMG 2113/2115 CAVOK BECMG 2202/2204 VRB02KT TEMPO 2206/2212 27005KT 3000 BR SCT003 BKN035
TAF del 21/09/2021 a las 10:17 UTC
Para mayor información visite www.meteochile.cl
Período de validez: desde el 21 a las 12:00 UTC hasta el 22 a las 12:00 UTC
Viento: dirección 170 grados, velocidad 7 nudos
Visibilidad: 10 km o más
Nubes: Nublado a 1000 pies sobre el nivel del aeródromo
Temperatura máxima: 16ºC el 21 a las 19:00 UTC
Temperatura mínima: 4ºC el 22 a las 09:00 UTC
Se espera un cambio entre las 13:00 UTC del 21 y las 15:00 UTC del 21, :
Visibilidad: 10 km o más,
    sin nubes bajo los 5.000 pies o bajo del MSA (Mínimo de Seguridad del Aeródromo),
    sin cumulonimbus, y sin fenómenos de tiempo significativo en el aeródromo o alrededores
Se espera un cambio entre las 02:00 UTC del 22 y las 04:00 UTC del 22, :
Viento: dirección variable, velocidad 2 nudos
Se espera en forma temporal entre las 06:00 UTC del 22 y las 12:00 UTC del 22:
Viento: dirección 270 grados, velocidad 5 nudos
Visibilidad: 3000 metros
Neblina
Nubes: Nubosidad parcial a 300 pies sobre el nivel del aeródromo
Nubes: Nublado a 3500 pies sobre el nivel del aeródromo